sensor_id;sensor_type;location;lat;lon;timestamp;P1;durP1;ratioP1;P2;durP2;ratioP2
48627;SDS011;34424;52.234;6.500;2022-10-14T00:04:45;37.50;;;20.50;;
48627;SDS011;34424;52.234;6.500;2022-10-14T00:09:48;38.35;;;23.10;;
48627;SDS011;34424;52.234;6.500;2022-10-14T00:14:51;36.67;;;22.00;;
48627;SDS011;34424;52.234;6.500;2022-10-14T00:19:53;35.10;;;20.67;;
48627;SDS011;34424;52.234;6.500;2022-10-14T00:24:57;38.15;;;20.98;;
48627;SDS011;34424;52.234;6.500;2022-10-14T00:29:59;33.03;;;18.88;;
48627;SDS011;34424;52.234;6.500;2022-10-14T00:35:02;33.80;;;20.25;;
48627;SDS011;34424;52.234;6.500;2022-10-14T00:40:06;39.10;;;21.50;;
48627;SDS011;34424;52.234;6.500;2022-10-14T00:45:11;37.15;;;20.58;;
48627;SDS011;34424;52.234;6.500;2022-10-14T00:50:14;37.50;;;19.73;;
48627;SDS011;34424;52.234;6.500;2022-10-14T00:55:18;38.67;;;21.70;;
48627;SDS011;34424;52.234;6.500;2022-10-14T01:00:20;36.17;;;20.83;;
48627;SDS011;34424;52.234;6.500;2022-10-14T01:05:23;45.97;;;22.47;;
48627;SDS011;34424;52.234;6.500;2022-10-14T01:10:33;39.22;;;20.42;;
48627;SDS011;34424;52.234;6.500;2022-10-14T01:15:40;45.50;;;21.77;;
48627;SDS011;34424;52.234;6.500;2022-10-14T01:20:48;47.65;;;23.88;;
48627;SDS011;34424;52.234;6.500;2022-10-14T01:25:56;45.63;;;24.50;;
48627;SDS011;34424;52.234;6.500;2022-10-14T01:31:04;43.55;;;22.33;;
48627;SDS011;34424;52.234;6.500;2022-10-14T01:36:09;41.80;;;22.35;;
48627;SDS011;34424;52.234;6.500;2022-10-14T01:41:16;44.00;;;22.67;;
48627;SDS011;34424;52.234;6.500;2022-10-14T01:46:23;40.83;;;22.10;;
48627;SDS011;34424;52.234;6.500;2022-10-14T01:51:26;39.63;;;22.70;;
48627;SDS011;34424;52.234;6.500;2022-10-14T01:56:31;38.92;;;21.17;;
48627;SDS011;34424;52.234;6.500;2022-10-14T02:01:41;40.00;;;22.65;;
48627;SDS011;34424;52.234;6.500;2022-10-14T02:06:45;39.08;;;22.20;;
48627;SDS011;34424;52.234;6.500;2022-10-14T02:11:53;41.95;;;21.98;;
48627;SDS011;34424;52.234;6.500;2022-10-14T02:17:01;41.33;;;21.98;;
48627;SDS011;34424;52.234;6.500;2022-10-14T02:22:05;43.63;;;22.15;;
48627;SDS011;34424;52.234;6.500;2022-10-14T02:27:11;45.08;;;23.33;;
48627;SDS011;34424;52.234;6.500;2022-10-14T02:32:16;42.40;;;23.38;;
48627;SDS011;34424;52.234;6.500;2022-10-14T02:37:21;46.25;;;24.92;;
48627;SDS011;34424;52.234;6.500;2022-10-14T02:42:24;59.80;;;27.85;;
48627;SDS011;34424;52.234;6.500;2022-10-14T02:47:28;47.17;;;25.10;;
48627;SDS011;34424;52.234;6.500;2022-10-14T02:52:30;49.90;;;24.63;;
48627;SDS011;34424;52.234;6.500;2022-10-14T02:57:33;45.55;;;23.25;;
48627;SDS011;34424;52.234;6.500;2022-10-14T03:02:37;46.57;;;26.17;;
48627;SDS011;34424;52.234;6.500;2022-10-14T03:07:39;55.00;;;27.60;;
48627;SDS011;34424;52.234;6.500;2022-10-14T03:12:42;49.97;;;24.67;;
48627;SDS011;34424;52.234;6.500;2022-10-14T03:17:45;60.40;;;30.13;;
48627;SDS011;34424;52.234;6.500;2022-10-14T03:22:48;60.85;;;27.73;;
48627;SDS011;34424;52.234;6.500;2022-10-14T03:27:50;57.05;;;28.58;;
48627;SDS011;34424;52.234;6.500;2022-10-14T03:32:55;55.17;;;27.48;;
48627;SDS011;34424;52.234;6.500;2022-10-14T03:37:58;62.83;;;31.17;;
48627;SDS011;34424;52.234;6.500;2022-10-14T03:43:03;71.93;;;33.70;;
48627;SDS011;34424;52.234;6.500;2022-10-14T03:48:06;68.43;;;32.10;;
48627;SDS011;34424;52.234;6.500;2022-10-14T03:53:09;61.35;;;29.08;;
48627;SDS011;34424;52.234;6.500;2022-10-14T03:58:12;71.03;;;33.17;;
48627;SDS011;34424;52.234;6.500;2022-10-14T04:03:15;68.68;;;31.23;;
48627;SDS011;34424;52.234;6.500;2022-10-14T04:08:18;62.15;;;32.40;;
48627;SDS011;34424;52.234;6.500;2022-10-14T04:13:20;75.25;;;34.83;;
48627;SDS011;34424;52.234;6.500;2022-10-14T04:18:24;72.43;;;34.67;;
48627;SDS011;34424;52.234;6.500;2022-10-14T04:23:27;61.95;;;32.47;;
48627;SDS011;34424;52.234;6.500;2022-10-14T04:28:29;89.25;;;37.78;;
48627;SDS011;34424;52.234;6.500;2022-10-14T04:33:33;84.40;;;38.35;;
48627;SDS011;34424;52.234;6.500;2022-10-14T04:38:36;81.88;;;36.38;;
48627;SDS011;34424;52.234;6.500;2022-10-14T04:43:38;98.22;;;39.25;;
48627;SDS011;34424;52.234;6.500;2022-10-14T04:48:42;83.75;;;37.92;;
48627;SDS011;34424;52.234;6.500;2022-10-14T04:53:45;123.65;;;43.45;;
48627;SDS011;34424;52.234;6.500;2022-10-14T04:58:47;97.68;;;39.22;;
48627;SDS011;34424;52.234;6.500;2022-10-14T05:03:51;129.30;;;47.13;;
48627;SDS011;34424;52.234;6.500;2022-10-14T05:08:53;114.57;;;44.92;;
48627;SDS011;34424;52.234;6.500;2022-10-14T05:13:55;152.27;;;52.03;;
48627;SDS011;34424;52.234;6.500;2022-10-14T05:18:59;112.03;;;43.72;;
48627;SDS011;34424;52.234;6.500;2022-10-14T05:24:02;167.85;;;55.25;;
48627;SDS011;34424;52.234;6.500;2022-10-14T05:29:04;163.95;;;56.28;;
48627;SDS011;34424;52.234;6.500;2022-10-14T05:34:08;161.73;;;52.80;;
48627;SDS011;34424;52.234;6.500;2022-10-14T05:39:11;156.98;;;53.50;;
48627;SDS011;34424;52.234;6.500;2022-10-14T05:44:14;191.95;;;60.75;;
48627;SDS011;34424;52.234;6.500;2022-10-14T05:49:18;160.07;;;58.38;;
48627;SDS011;34424;52.234;6.500;2022-10-14T05:54:20;238.18;;;67.13;;
48627;SDS011;34424;52.234;6.500;2022-10-14T05:59:23;193.03;;;62.80;;
48627;SDS011;34424;52.234;6.500;2022-10-14T06:04:27;193.95;;;65.80;;
48627;SDS011;34424;52.234;6.500;2022-10-14T06:09:30;200.43;;;66.38;;
48627;SDS011;34424;52.234;6.500;2022-10-14T06:14:32;228.35;;;70.68;;
48627;SDS011;34424;52.234;6.500;2022-10-14T06:19:36;164.50;;;58.80;;
48627;SDS011;34424;52.234;6.500;2022-10-14T06:24:38;267.25;;;79.32;;
48627;SDS011;34424;52.234;6.500;2022-10-14T06:29:41;292.73;;;82.18;;
48627;SDS011;34424;52.234;6.500;2022-10-14T06:34:44;208.85;;;66.63;;
48627;SDS011;34424;52.234;6.500;2022-10-14T06:39:47;185.73;;;67.72;;
48627;SDS011;34424;52.234;6.500;2022-10-14T06:44:49;193.00;;;61.05;;
48627;SDS011;34424;52.234;6.500;2022-10-14T06:49:53;253.15;;;72.95;;
48627;SDS011;34424;52.234;6.500;2022-10-14T06:54:55;346.38;;;84.13;;
48627;SDS011;34424;52.234;6.500;2022-10-14T06:59:58;233.10;;;69.82;;
48627;SDS011;34424;52.234;6.500;2022-10-14T07:05:01;232.55;;;71.47;;
48627;SDS011;34424;52.234;6.500;2022-10-14T07:10:04;241.90;;;74.03;;
48627;SDS011;34424;52.234;6.500;2022-10-14T07:15:07;282.07;;;81.50;;
48627;SDS011;34424;52.234;6.500;2022-10-14T07:20:11;212.25;;;71.07;;
48627;SDS011;34424;52.234;6.500;2022-10-14T07:25:13;186.63;;;66.88;;
48627;SDS011;34424;52.234;6.500;2022-10-14T07:30:16;158.17;;;57.90;;
48627;SDS011;34424;52.234;6.500;2022-10-14T07:35:20;161.60;;;53.60;;
48627;SDS011;34424;52.234;6.500;2022-10-14T07:40:22;142.38;;;51.65;;
48627;SDS011;34424;52.234;6.500;2022-10-14T07:45:24;144.13;;;48.23;;
48627;SDS011;34424;52.234;6.500;2022-10-14T07:50:28;104.53;;;41.10;;
48627;SDS011;34424;52.234;6.500;2022-10-14T07:55:30;99.60;;;37.50;;
48627;SDS011;34424;52.234;6.500;2022-10-14T08:00:33;120.65;;;40.88;;
48627;SDS011;34424;52.234;6.500;2022-10-14T08:05:37;109.80;;;40.80;;
48627;SDS011;34424;52.234;6.500;2022-10-14T08:10:40;100.10;;;39.42;;
48627;SDS011;34424;52.234;6.500;2022-10-14T08:15:42;97.88;;;38.38;;
48627;SDS011;34424;52.234;6.500;2022-10-14T08:20:46;94.82;;;37.03;;
48627;SDS011;34424;52.234;6.500;2022-10-14T08:25:48;83.55;;;36.40;;
48627;SDS011;34424;52.234;6.500;2022-10-14T08:30:51;83.13;;;36.80;;
48627;SDS011;34424;52.234;6.500;2022-10-14T08:35:55;76.80;;;31.33;;
48627;SDS011;34424;52.234;6.500;2022-10-14T08:40:59;80.82;;;34.08;;
48627;SDS011;34424;52.234;6.500;2022-10-14T08:46:04;67.85;;;29.60;;
48627;SDS011;34424;52.234;6.500;2022-10-14T08:51:10;51.10;;;26.77;;
48627;SDS011;34424;52.234;6.500;2022-10-14T08:56:12;57.08;;;27.73;;
48627;SDS011;34424;52.234;6.500;2022-10-14T09:01:18;48.05;;;25.75;;
48627;SDS011;34424;52.234;6.500;2022-10-14T09:06:25;42.13;;;25.10;;
48627;SDS011;34424;52.234;6.500;2022-10-14T09:11:27;41.13;;;21.42;;
48627;SDS011;34424;52.234;6.500;2022-10-14T09:16:35;38.75;;;21.60;;
48627;SDS011;34424;52.234;6.500;2022-10-14T09:26:54;35.30;;;18.85;;
48627;SDS011;34424;52.234;6.500;2022-10-14T09:31:58;30.77;;;19.20;;
48627;SDS011;34424;52.234;6.500;2022-10-14T09:37:19;23.95;;;16.90;;
48627;SDS011;34424;52.234;6.500;2022-10-14T09:42:30;22.08;;;14.85;;
48627;SDS011;34424;52.234;6.500;2022-10-14T09:47:39;19.38;;;14.98;;
48627;SDS011;34424;52.234;6.500;2022-10-14T09:52:43;19.02;;;14.35;;
48627;SDS011;34424;52.234;6.500;2022-10-14T09:57:46;20.23;;;14.93;;
48627;SDS011;34424;52.234;6.500;2022-10-14T10:02:49;19.48;;;15.00;;
48627;SDS011;34424;52.234;6.500;2022-10-14T10:08:00;18.85;;;12.55;;
48627;SDS011;34424;52.234;6.500;2022-10-14T10:13:04;19.02;;;14.35;;
48627;SDS011;34424;52.234;6.500;2022-10-14T10:18:22;23.85;;;15.88;;
48627;SDS011;34424;52.234;6.500;2022-10-14T10:23:24;26.13;;;17.75;;
48627;SDS011;34424;52.234;6.500;2022-10-14T10:28:28;25.30;;;17.77;;
48627;SDS011;34424;52.234;6.500;2022-10-14T10:33:33;25.13;;;17.60;;
48627;SDS011;34424;52.234;6.500;2022-10-14T10:38:41;22.92;;;17.02;;
48627;SDS011;34424;52.234;6.500;2022-10-14T10:43:54;24.02;;;16.50;;
48627;SDS011;34424;52.234;6.500;2022-10-14T10:49:00;23.90;;;16.60;;
48627;SDS011;34424;52.234;6.500;2022-10-14T10:54:06;24.55;;;17.15;;
48627;SDS011;34424;52.234;6.500;2022-10-14T10:59:24;23.77;;;16.67;;
48627;SDS011;34424;52.234;6.500;2022-10-14T11:04:31;18.73;;;14.68;;
48627;SDS011;34424;52.234;6.500;2022-10-14T11:09:35;21.23;;;15.98;;
48627;SDS011;34424;52.234;6.500;2022-10-14T11:15:03;22.20;;;16.07;;
48627;SDS011;34424;52.234;6.500;2022-10-14T11:20:11;19.95;;;16.20;;
48627;SDS011;34424;52.234;6.500;2022-10-14T11:25:19;21.75;;;16.70;;
48627;SDS011;34424;52.234;6.500;2022-10-14T11:30:26;17.10;;;14.27;;
48627;SDS011;34424;52.234;6.500;2022-10-14T11:35:35;19.40;;;14.90;;
48627;SDS011;34424;52.234;6.500;2022-10-14T11:40:40;17.77;;;14.60;;
48627;SDS011;34424;52.234;6.500;2022-10-14T11:45:49;18.00;;;15.25;;
48627;SDS011;34424;52.234;6.500;2022-10-14T11:50:54;19.08;;;15.88;;
48627;SDS011;34424;52.234;6.500;2022-10-14T11:56:00;18.55;;;14.02;;
48627;SDS011;34424;52.234;6.500;2022-10-14T12:01:05;19.45;;;15.63;;
48627;SDS011;34424;52.234;6.500;2022-10-14T12:06:10;18.55;;;15.10;;
48627;SDS011;34424;52.234;6.500;2022-10-14T12:11:15;18.30;;;14.90;;
48627;SDS011;34424;52.234;6.500;2022-10-14T12:16:23;19.63;;;14.38;;
48627;SDS011;34424;52.234;6.500;2022-10-14T12:21:27;21.08;;;15.27;;
48627;SDS011;34424;52.234;6.500;2022-10-14T12:26:38;20.08;;;15.93;;
48627;SDS011;34424;52.234;6.500;2022-10-14T12:31:48;22.30;;;16.45;;
48627;SDS011;34424;52.234;6.500;2022-10-14T12:36:51;21.85;;;16.92;;
48627;SDS011;34424;52.234;6.500;2022-10-14T12:41:53;21.15;;;16.58;;
48627;SDS011;34424;52.234;6.500;2022-10-14T12:46:58;21.45;;;16.70;;
48627;SDS011;34424;52.234;6.500;2022-10-14T12:52:01;17.15;;;15.13;;
48627;SDS011;34424;52.234;6.500;2022-10-14T12:57:04;19.63;;;14.77;;
48627;SDS011;34424;52.234;6.500;2022-10-14T13:02:16;20.27;;;16.10;;
48627;SDS011;34424;52.234;6.500;2022-10-14T13:07:27;20.65;;;16.42;;
48627;SDS011;34424;52.234;6.500;2022-10-14T13:12:47;19.02;;;15.82;;
48627;SDS011;34424;52.234;6.500;2022-10-14T13:17:50;18.33;;;15.20;;
48627;SDS011;34424;52.234;6.500;2022-10-14T13:22:54;18.95;;;14.35;;
48627;SDS011;34424;52.234;6.500;2022-10-14T13:28:19;15.95;;;13.57;;
48627;SDS011;34424;52.234;6.500;2022-10-14T13:33:29;17.75;;;14.90;;
48627;SDS011;34424;52.234;6.500;2022-10-14T13:38:33;16.48;;;12.40;;
48627;SDS011;34424;52.234;6.500;2022-10-14T13:43:36;14.73;;;12.88;;
48627;SDS011;34424;52.234;6.500;2022-10-14T13:48:42;18.25;;;15.30;;
48627;SDS011;34424;52.234;6.500;2022-10-14T13:53:48;16.42;;;14.00;;
48627;SDS011;34424;52.234;6.500;2022-10-14T13:58:51;16.17;;;13.52;;
48627;SDS011;34424;52.234;6.500;2022-10-14T14:03:56;16.00;;;13.32;;
48627;SDS011;34424;52.234;6.500;2022-10-14T14:08:59;16.15;;;13.23;;
48627;SDS011;34424;52.234;6.500;2022-10-14T14:14:02;13.82;;;12.02;;
48627;SDS011;34424;52.234;6.500;2022-10-14T14:19:15;15.85;;;12.60;;
48627;SDS011;34424;52.234;6.500;2022-10-14T14:24:20;13.80;;;11.55;;
48627;SDS011;34424;52.234;6.500;2022-10-14T14:29:24;13.65;;;12.00;;
48627;SDS011;34424;52.234;6.500;2022-10-14T14:34:29;16.73;;;12.77;;
48627;SDS011;34424;52.234;6.500;2022-10-14T14:39:31;15.98;;;13.18;;
48627;SDS011;34424;52.234;6.500;2022-10-14T14:44:34;14.67;;;13.13;;
48627;SDS011;34424;52.234;6.500;2022-10-14T14:49:38;16.08;;;14.10;;
48627;SDS011;34424;52.234;6.500;2022-10-14T14:54:44;16.85;;;13.80;;
48627;SDS011;34424;52.234;6.500;2022-10-14T14:59:49;15.82;;;12.18;;
48627;SDS011;34424;52.234;6.500;2022-10-14T15:05:01;17.70;;;12.93;;
48627;SDS011;34424;52.234;6.500;2022-10-14T15:10:06;19.55;;;14.52;;
48627;SDS011;34424;52.234;6.500;2022-10-14T15:15:21;16.85;;;12.82;;
48627;SDS011;34424;52.234;6.500;2022-10-14T15:20:28;20.17;;;14.25;;
48627;SDS011;34424;52.234;6.500;2022-10-14T15:25:31;16.40;;;13.73;;
48627;SDS011;34424;52.234;6.500;2022-10-14T15:30:34;16.77;;;13.40;;
48627;SDS011;34424;52.234;6.500;2022-10-14T15:35:56;17.00;;;12.75;;
48627;SDS011;34424;52.234;6.500;2022-10-14T15:40:59;15.98;;;12.98;;
48627;SDS011;34424;52.234;6.500;2022-10-14T15:46:04;16.20;;;13.45;;
48627;SDS011;34424;52.234;6.500;2022-10-14T15:51:27;19.92;;;15.02;;
48627;SDS011;34424;52.234;6.500;2022-10-14T15:56:30;17.50;;;14.10;;
48627;SDS011;34424;52.234;6.500;2022-10-14T16:01:33;18.17;;;13.97;;
48627;SDS011;34424;52.234;6.500;2022-10-14T16:06:38;17.02;;;13.95;;
48627;SDS011;34424;52.234;6.500;2022-10-14T16:11:41;16.40;;;12.35;;
48627;SDS011;34424;52.234;6.500;2022-10-14T16:16:44;17.63;;;14.40;;
48627;SDS011;34424;52.234;6.500;2022-10-14T16:21:48;19.30;;;13.93;;
48627;SDS011;34424;52.234;6.500;2022-10-14T16:26:51;23.23;;;15.55;;
48627;SDS011;34424;52.234;6.500;2022-10-14T16:31:53;24.30;;;17.87;;
48627;SDS011;34424;52.234;6.500;2022-10-14T16:36:57;21.77;;;17.47;;
48627;SDS011;34424;52.234;6.500;2022-10-14T16:41:59;18.77;;;14.95;;
48627;SDS011;34424;52.234;6.500;2022-10-14T16:52:19;18.85;;;15.70;;
48627;SDS011;34424;52.234;6.500;2022-10-14T16:57:22;23.90;;;18.73;;
48627;SDS011;34424;52.234;6.500;2022-10-14T17:02:24;20.33;;;13.93;;
48627;SDS011;34424;52.234;6.500;2022-10-14T17:07:33;20.20;;;13.52;;
48627;SDS011;34424;52.234;6.500;2022-10-14T17:12:35;20.17;;;14.65;;
48627;SDS011;34424;52.234;6.500;2022-10-14T17:17:38;31.70;;;19.13;;
48627;SDS011;34424;52.234;6.500;2022-10-14T17:22:42;28.83;;;20.17;;
48627;SDS011;34424;52.234;6.500;2022-10-14T17:27:44;25.85;;;16.85;;
48627;SDS011;34424;52.234;6.500;2022-10-14T17:32:48;29.87;;;18.47;;
48627;SDS011;34424;52.234;6.500;2022-10-14T17:42:54;30.75;;;20.40;;
48627;SDS011;34424;52.234;6.500;2022-10-14T17:47:56;29.27;;;20.40;;
48627;SDS011;34424;52.234;6.500;2022-10-14T17:52:59;35.07;;;21.83;;
48627;SDS011;34424;52.234;6.500;2022-10-14T17:58:03;37.47;;;23.17;;
48627;SDS011;34424;52.234;6.500;2022-10-14T18:03:05;38.90;;;24.88;;
48627;SDS011;34424;52.234;6.500;2022-10-14T18:08:09;44.38;;;27.50;;
48627;SDS011;34424;52.234;6.500;2022-10-14T18:13:13;51.05;;;29.70;;
48627;SDS011;34424;52.234;6.500;2022-10-14T18:18:16;46.58;;;27.52;;
48627;SDS011;34424;52.234;6.500;2022-10-14T18:23:18;52.63;;;29.73;;
48627;SDS011;34424;52.234;6.500;2022-10-14T18:28:22;45.60;;;29.42;;
48627;SDS011;34424;52.234;6.500;2022-10-14T18:33:26;53.20;;;31.65;;
48627;SDS011;34424;52.234;6.500;2022-10-14T18:38:29;74.13;;;37.15;;
48627;SDS011;34424;52.234;6.500;2022-10-14T18:43:34;65.10;;;37.53;;
48627;SDS011;34424;52.234;6.500;2022-10-14T18:48:36;60.65;;;35.38;;
48627;SDS011;34424;52.234;6.500;2022-10-14T18:53:39;73.40;;;37.67;;
48627;SDS011;34424;52.234;6.500;2022-10-14T18:58:44;73.95;;;38.65;;
48627;SDS011;34424;52.234;6.500;2022-10-14T19:03:46;69.07;;;37.85;;
48627;SDS011;34424;52.234;6.500;2022-10-14T19:08:51;69.88;;;34.88;;
48627;SDS011;34424;52.234;6.500;2022-10-14T19:13:56;74.75;;;39.33;;
48627;SDS011;34424;52.234;6.500;2022-10-14T19:18:59;102.78;;;46.97;;
48627;SDS011;34424;52.234;6.500;2022-10-14T19:24:04;97.90;;;45.40;;
48627;SDS011;34424;52.234;6.500;2022-10-14T19:29:10;118.25;;;58.45;;
48627;SDS011;34424;52.234;6.500;2022-10-14T19:34:13;125.60;;;48.60;;
48627;SDS011;34424;52.234;6.500;2022-10-14T19:49:41;110.22;;;49.10;;
48627;SDS011;34424;52.234;6.500;2022-10-14T19:54:43;114.68;;;51.22;;
48627;SDS011;34424;52.234;6.500;2022-10-14T19:59:46;131.93;;;56.47;;
48627;SDS011;34424;52.234;6.500;2022-10-14T20:04:50;113.32;;;50.35;;
48627;SDS011;34424;52.234;6.500;2022-10-14T20:09:52;137.43;;;62.00;;
48627;SDS011;34424;52.234;6.500;2022-10-14T20:14:57;158.15;;;72.75;;
48627;SDS011;34424;52.234;6.500;2022-10-14T20:20:01;137.00;;;64.50;;
48627;SDS011;34424;52.234;6.500;2022-10-14T20:25:03;108.28;;;53.22;;
48627;SDS011;34424;52.234;6.500;2022-10-14T20:30:06;139.20;;;57.55;;
48627;SDS011;34424;52.234;6.500;2022-10-14T20:35:10;166.80;;;69.30;;
48627;SDS011;34424;52.234;6.500;2022-10-14T20:40:15;147.73;;;69.28;;
48627;SDS011;34424;52.234;6.500;2022-10-14T20:50:24;130.85;;;64.72;;
48627;SDS011;34424;52.234;6.500;2022-10-14T20:55:27;103.10;;;52.60;;
48627;SDS011;34424;52.234;6.500;2022-10-14T21:00:29;108.50;;;55.40;;
48627;SDS011;34424;52.234;6.500;2022-10-14T21:05:35;114.30;;;52.35;;
48627;SDS011;34424;52.234;6.500;2022-10-14T21:10:38;128.57;;;53.25;;
48627;SDS011;34424;52.234;6.500;2022-10-14T21:15:40;329.80;;;74.03;;
48627;SDS011;34424;52.234;6.500;2022-10-14T21:20:44;300.42;;;73.78;;
48627;SDS011;34424;52.234;6.500;2022-10-14T21:25:52;336.70;;;86.70;;
48627;SDS011;34424;52.234;6.500;2022-10-14T21:30:55;236.00;;;61.58;;
48627;SDS011;34424;52.234;6.500;2022-10-14T21:36:01;403.45;;;74.57;;
48627;SDS011;34424;52.234;6.500;2022-10-14T21:41:04;506.00;;;95.10;;
48627;SDS011;34424;52.234;6.500;2022-10-14T21:46:07;307.92;;;57.28;;
48627;SDS011;34424;52.234;6.500;2022-10-14T21:51:12;423.88;;;93.60;;
48627;SDS011;34424;52.234;6.500;2022-10-14T21:56:15;518.08;;;92.25;;
48627;SDS011;34424;52.234;6.500;2022-10-14T22:01:19;348.88;;;70.03;;
48627;SDS011;34424;52.234;6.500;2022-10-14T22:06:23;418.77;;;81.50;;
48627;SDS011;34424;52.234;6.500;2022-10-14T22:11:26;533.63;;;103.00;;
48627;SDS011;34424;52.234;6.500;2022-10-14T22:16:29;271.05;;;60.80;;
48627;SDS011;34424;52.234;6.500;2022-10-14T22:21:33;215.35;;;54.47;;
48627;SDS011;34424;52.234;6.500;2022-10-14T22:26:36;138.93;;;51.25;;
48627;SDS011;34424;52.234;6.500;2022-10-14T22:31:40;351.50;;;69.75;;
48627;SDS011;34424;52.234;6.500;2022-10-14T22:36:45;339.23;;;67.45;;
48627;SDS011;34424;52.234;6.500;2022-10-14T22:41:47;326.77;;;63.88;;
48627;SDS011;34424;52.234;6.500;2022-10-14T22:46:50;150.37;;;48.70;;
48627;SDS011;34424;52.234;6.500;2022-10-14T22:51:53;164.50;;;49.07;;
48627;SDS011;34424;52.234;6.500;2022-10-14T22:56:56;391.30;;;79.95;;
48627;SDS011;34424;52.234;6.500;2022-10-14T23:01:59;215.43;;;59.05;;
48627;SDS011;34424;52.234;6.500;2022-10-14T23:07:03;382.13;;;84.40;;
48627;SDS011;34424;52.234;6.500;2022-10-14T23:12:07;386.10;;;84.00;;
48627;SDS011;34424;52.234;6.500;2022-10-14T23:17:09;335.67;;;76.93;;
48627;SDS011;34424;52.234;6.500;2022-10-14T23:22:13;461.33;;;95.55;;
48627;SDS011;34424;52.234;6.500;2022-10-14T23:27:15;255.07;;;63.85;;
48627;SDS011;34424;52.234;6.500;2022-10-14T23:32:18;234.23;;;62.28;;
48627;SDS011;34424;52.234;6.500;2022-10-14T23:37:22;117.85;;;51.72;;
48627;SDS011;34424;52.234;6.500;2022-10-14T23:42:25;294.15;;;66.45;;
48627;SDS011;34424;52.234;6.500;2022-10-14T23:47:27;363.75;;;83.75;;
48627;SDS011;34424;52.234;6.500;2022-10-14T23:52:31;305.88;;;75.63;;
48627;SDS011;34424;52.234;6.500;2022-10-14T23:57:33;345.50;;;84.95;;
